Terminal Aerodrome Forecast
Issued by NWS

Home | Current Version | Previous Version | Text Only | Print | Product List | Glossary On
Versions: 1 2 3 4 5 6 7 8 9 10 11 12 13 14 15 16 17 18 19 20 21 22 23 24
000
FTUS45 KGJT 202325
TAFTEX
TAF
KTEX 202325Z 2100/2124 24009G15KT P6SM VCSH SCT090 BKN150
     FM210200 14005KT P6SM VCSH SCT090 BKN150
     FM210600 13008KT P6SM VCSH BKN080
     FM211400 14008KT P6SM VCSH SCT050 BKN070
     FM211800 20007KT P6SM VCSH SCT080 BKN120
      AMD NOT SKED=

USA.gov is the U.S. government's official web portal to all federal, state and local government web resources and services.